sensor_id;sensor_type;location;lat;lon;timestamp;P1;durP1;ratioP1;P2;durP2;ratioP2
46429;SDS011;32131;53.454;-6.180;2023-04-01T00:00:04;2.20;;;1.45;;
46429;SDS011;32131;53.454;-6.180;2023-04-01T00:02:33;2.25;;;1.45;;
46429;SDS011;32131;53.454;-6.180;2023-04-01T00:05:02;8.25;;;1.88;;
46429;SDS011;32131;53.454;-6.180;2023-04-01T00:07:31;2.63;;;1.17;;
46429;SDS011;32131;53.454;-6.180;2023-04-01T00:10:01;2.50;;;1.67;;
46429;SDS011;32131;53.454;-6.180;2023-04-01T00:12:30;2.22;;;1.55;;
46429;SDS011;32131;53.454;-6.180;2023-04-01T00:14:59;2.23;;;1.50;;
46429;SDS011;32131;53.454;-6.180;2023-04-01T00:17:27;5.32;;;1.77;;
46429;SDS011;32131;53.454;-6.180;2023-04-01T00:19:55;3.90;;;2.08;;
46429;SDS011;32131;53.454;-6.180;2023-04-01T00:22:24;2.63;;;1.25;;
46429;SDS011;32131;53.454;-6.180;2023-04-01T00:24:52;3.05;;;1.63;;
46429;SDS011;32131;53.454;-6.180;2023-04-01T00:27:22;2.10;;;1.65;;
46429;SDS011;32131;53.454;-6.180;2023-04-01T00:29:51;2.33;;;1.40;;
46429;SDS011;32131;53.454;-6.180;2023-04-01T00:32:19;2.67;;;1.63;;
46429;SDS011;32131;53.454;-6.180;2023-04-01T00:34:49;2.80;;;1.38;;
46429;SDS011;32131;53.454;-6.180;2023-04-01T00:37:18;2.05;;;1.20;;
46429;SDS011;32131;53.454;-6.180;2023-04-01T00:39:47;2.33;;;1.40;;
46429;SDS011;32131;53.454;-6.180;2023-04-01T00:42:15;2.10;;;1.60;;
46429;SDS011;32131;53.454;-6.180;2023-04-01T00:44:47;2.00;;;1.50;;
46429;SDS011;32131;53.454;-6.180;2023-04-01T00:47:18;3.53;;;1.50;;
46429;SDS011;32131;53.454;-6.180;2023-04-01T00:49:48;2.53;;;1.67;;
46429;SDS011;32131;53.454;-6.180;2023-04-01T00:52:21;2.33;;;1.42;;
46429;SDS011;32131;53.454;-6.180;2023-04-01T00:54:52;3.17;;;1.85;;
46429;SDS011;32131;53.454;-6.180;2023-04-01T00:57:25;1.75;;;1.35;;
46429;SDS011;32131;53.454;-6.180;2023-04-01T00:59:59;2.92;;;1.73;;
46429;SDS011;32131;53.454;-6.180;2023-04-01T01:02:28;1.67;;;1.15;;
46429;SDS011;32131;53.454;-6.180;2023-04-01T01:04:58;4.75;;;1.80;;
46429;SDS011;32131;53.454;-6.180;2023-04-01T01:07:27;2.55;;;1.50;;
46429;SDS011;32131;53.454;-6.180;2023-04-01T01:10:02;2.83;;;1.38;;
46429;SDS011;32131;53.454;-6.180;2023-04-01T01:12:38;1.40;;;1.20;;
46429;SDS011;32131;53.454;-6.180;2023-04-01T01:15:15;1.52;;;1.10;;
46429;SDS011;32131;53.454;-6.180;2023-04-01T01:17:49;1.92;;;1.25;;
46429;SDS011;32131;53.454;-6.180;2023-04-01T01:20:31;4.22;;;1.23;;
46429;SDS011;32131;53.454;-6.180;2023-04-01T01:26:15;1.90;;;1.10;;
46429;SDS011;32131;53.454;-6.180;2023-04-01T01:29:05;2.25;;;1.10;;
46429;SDS011;32131;53.454;-6.180;2023-04-01T01:31:46;1.90;;;1.27;;
46429;SDS011;32131;53.454;-6.180;2023-04-01T01:34:24;2.20;;;1.35;;
46429;SDS011;32131;53.454;-6.180;2023-04-01T01:39:36;2.40;;;1.38;;
46429;SDS011;32131;53.454;-6.180;2023-04-01T01:42:08;2.17;;;1.50;;
46429;SDS011;32131;53.454;-6.180;2023-04-01T01:44:40;2.20;;;1.55;;
46429;SDS011;32131;53.454;-6.180;2023-04-01T01:47:12;2.28;;;1.60;;
46429;SDS011;32131;53.454;-6.180;2023-04-01T01:49:41;2.13;;;1.58;;
46429;SDS011;32131;53.454;-6.180;2023-04-01T01:52:13;2.67;;;1.60;;
46429;SDS011;32131;53.454;-6.180;2023-04-01T01:54:46;2.63;;;1.52;;
46429;SDS011;32131;53.454;-6.180;2023-04-01T01:57:16;2.15;;;1.73;;
46429;SDS011;32131;53.454;-6.180;2023-04-01T01:59:47;1.63;;;1.48;;
46429;SDS011;32131;53.454;-6.180;2023-04-01T02:02:18;3.10;;;1.67;;
46429;SDS011;32131;53.454;-6.180;2023-04-01T02:04:47;2.07;;;1.40;;
46429;SDS011;32131;53.454;-6.180;2023-04-01T02:07:19;2.10;;;1.55;;
46429;SDS011;32131;53.454;-6.180;2023-04-01T02:09:52;3.38;;;2.00;;
46429;SDS011;32131;53.454;-6.180;2023-04-01T02:12:21;4.15;;;1.80;;
46429;SDS011;32131;53.454;-6.180;2023-04-01T02:14:52;2.97;;;1.63;;
46429;SDS011;32131;53.454;-6.180;2023-04-01T02:17:23;2.60;;;1.90;;
46429;SDS011;32131;53.454;-6.180;2023-04-01T02:19:56;2.53;;;1.85;;
46429;SDS011;32131;53.454;-6.180;2023-04-01T02:22:28;3.75;;;1.77;;
46429;SDS011;32131;53.454;-6.180;2023-04-01T02:25:01;2.25;;;1.70;;
46429;SDS011;32131;53.454;-6.180;2023-04-01T02:27:33;2.92;;;1.85;;
46429;SDS011;32131;53.454;-6.180;2023-04-01T02:30:02;2.08;;;1.40;;
46429;SDS011;32131;53.454;-6.180;2023-04-01T02:32:30;3.72;;;1.75;;
46429;SDS011;32131;53.454;-6.180;2023-04-01T02:35:01;1.95;;;1.50;;
46429;SDS011;32131;53.454;-6.180;2023-04-01T02:37:33;2.00;;;1.50;;
46429;SDS011;32131;53.454;-6.180;2023-04-01T02:40:05;2.53;;;1.42;;
46429;SDS011;32131;53.454;-6.180;2023-04-01T02:42:35;2.65;;;1.80;;
46429;SDS011;32131;53.454;-6.180;2023-04-01T02:45:04;2.75;;;1.83;;
46429;SDS011;32131;53.454;-6.180;2023-04-01T02:47:33;2.33;;;1.60;;
46429;SDS011;32131;53.454;-6.180;2023-04-01T02:50:02;2.10;;;1.50;;
46429;SDS011;32131;53.454;-6.180;2023-04-01T02:52:30;2.70;;;1.70;;
46429;SDS011;32131;53.454;-6.180;2023-04-01T02:55:00;1.95;;;1.33;;
46429;SDS011;32131;53.454;-6.180;2023-04-01T02:57:29;1.52;;;1.08;;
46429;SDS011;32131;53.454;-6.180;2023-04-01T02:59:57;3.33;;;1.42;;
46429;SDS011;32131;53.454;-6.180;2023-04-01T03:02:25;1.58;;;1.20;;
46429;SDS011;32131;53.454;-6.180;2023-04-01T03:04:53;1.90;;;1.33;;
46429;SDS011;32131;53.454;-6.180;2023-04-01T03:07:21;2.67;;;1.30;;
46429;SDS011;32131;53.454;-6.180;2023-04-01T03:09:50;1.60;;;1.13;;
46429;SDS011;32131;53.454;-6.180;2023-04-01T03:12:19;1.45;;;1.20;;
46429;SDS011;32131;53.454;-6.180;2023-04-01T03:14:47;1.98;;;1.20;;
46429;SDS011;32131;53.454;-6.180;2023-04-01T03:17:15;1.73;;;1.17;;
46429;SDS011;32131;53.454;-6.180;2023-04-01T03:19:43;1.85;;;1.30;;
46429;SDS011;32131;53.454;-6.180;2023-04-01T03:22:11;2.63;;;1.50;;
46429;SDS011;32131;53.454;-6.180;2023-04-01T03:24:39;2.33;;;1.42;;
46429;SDS011;32131;53.454;-6.180;2023-04-01T03:27:09;2.35;;;1.48;;
46429;SDS011;32131;53.454;-6.180;2023-04-01T03:29:38;2.95;;;1.67;;
46429;SDS011;32131;53.454;-6.180;2023-04-01T03:32:07;2.85;;;1.48;;
46429;SDS011;32131;53.454;-6.180;2023-04-01T03:34:35;2.78;;;1.50;;
46429;SDS011;32131;53.454;-6.180;2023-04-01T03:37:03;2.13;;;1.40;;
46429;SDS011;32131;53.454;-6.180;2023-04-01T03:39:32;2.08;;;1.45;;
46429;SDS011;32131;53.454;-6.180;2023-04-01T03:42:00;6.03;;;1.38;;
46429;SDS011;32131;53.454;-6.180;2023-04-01T03:44:30;2.65;;;1.25;;
46429;SDS011;32131;53.454;-6.180;2023-04-01T03:47:00;2.05;;;1.48;;
46429;SDS011;32131;53.454;-6.180;2023-04-01T03:49:28;7.65;;;1.35;;
46429;SDS011;32131;53.454;-6.180;2023-04-01T03:51:58;2.55;;;1.08;;
46429;SDS011;32131;53.454;-6.180;2023-04-01T03:54:26;2.15;;;1.27;;
46429;SDS011;32131;53.454;-6.180;2023-04-01T03:56:54;4.45;;;1.08;;
46429;SDS011;32131;53.454;-6.180;2023-04-01T03:59:24;2.22;;;1.02;;
46429;SDS011;32131;53.454;-6.180;2023-04-01T04:01:52;3.30;;;1.75;;
46429;SDS011;32131;53.454;-6.180;2023-04-01T04:04:22;2.55;;;1.10;;
46429;SDS011;32131;53.454;-6.180;2023-04-01T04:06:50;4.88;;;1.40;;
46429;SDS011;32131;53.454;-6.180;2023-04-01T04:09:18;1.55;;;1.30;;
46429;SDS011;32131;53.454;-6.180;2023-04-01T04:11:47;1.60;;;1.13;;
46429;SDS011;32131;53.454;-6.180;2023-04-01T04:14:16;2.25;;;1.38;;
46429;SDS011;32131;53.454;-6.180;2023-04-01T04:16:45;2.50;;;1.33;;
46429;SDS011;32131;53.454;-6.180;2023-04-01T04:19:13;1.75;;;1.15;;
46429;SDS011;32131;53.454;-6.180;2023-04-01T04:21:42;1.60;;;1.15;;
46429;SDS011;32131;53.454;-6.180;2023-04-01T04:24:10;3.20;;;1.17;;
46429;SDS011;32131;53.454;-6.180;2023-04-01T04:26:38;1.70;;;1.10;;
46429;SDS011;32131;53.454;-6.180;2023-04-01T04:29:07;1.20;;;0.80;;
46429;SDS011;32131;53.454;-6.180;2023-04-01T04:31:35;2.08;;;1.20;;
46429;SDS011;32131;53.454;-6.180;2023-04-01T04:34:03;1.40;;;0.90;;
46429;SDS011;32131;53.454;-6.180;2023-04-01T04:36:31;3.65;;;1.40;;
46429;SDS011;32131;53.454;-6.180;2023-04-01T04:39:01;2.05;;;1.08;;
46429;SDS011;32131;53.454;-6.180;2023-04-01T04:41:29;2.45;;;1.40;;
46429;SDS011;32131;53.454;-6.180;2023-04-01T04:43:57;2.47;;;1.30;;
46429;SDS011;32131;53.454;-6.180;2023-04-01T04:46:25;1.60;;;1.10;;
46429;SDS011;32131;53.454;-6.180;2023-04-01T04:48:54;4.03;;;1.13;;
46429;SDS011;32131;53.454;-6.180;2023-04-01T04:51:22;2.35;;;1.25;;
46429;SDS011;32131;53.454;-6.180;2023-04-01T04:53:50;2.25;;;1.10;;
46429;SDS011;32131;53.454;-6.180;2023-04-01T04:56:20;2.15;;;1.13;;
46429;SDS011;32131;53.454;-6.180;2023-04-01T04:58:51;1.73;;;0.90;;
46429;SDS011;32131;53.454;-6.180;2023-04-01T05:01:20;1.80;;;1.05;;
46429;SDS011;32131;53.454;-6.180;2023-04-01T05:03:48;1.40;;;0.88;;
46429;SDS011;32131;53.454;-6.180;2023-04-01T05:06:17;1.75;;;1.00;;
46429;SDS011;32131;53.454;-6.180;2023-04-01T05:08:48;2.00;;;1.10;;
46429;SDS011;32131;53.454;-6.180;2023-04-01T05:11:17;1.77;;;1.08;;
46429;SDS011;32131;53.454;-6.180;2023-04-01T05:13:48;2.97;;;1.40;;
46429;SDS011;32131;53.454;-6.180;2023-04-01T05:16:17;2.78;;;1.42;;
46429;SDS011;32131;53.454;-6.180;2023-04-01T05:21:14;4.80;;;1.60;;
46429;SDS011;32131;53.454;-6.180;2023-04-01T05:23:43;2.70;;;1.42;;
46429;SDS011;32131;53.454;-6.180;2023-04-01T05:26:12;6.50;;;1.90;;
46429;SDS011;32131;53.454;-6.180;2023-04-01T05:28:41;2.65;;;1.52;;
46429;SDS011;32131;53.454;-6.180;2023-04-01T05:31:11;4.20;;;1.40;;
46429;SDS011;32131;53.454;-6.180;2023-04-01T05:33:40;4.80;;;1.63;;
46429;SDS011;32131;53.454;-6.180;2023-04-01T05:36:09;14.38;;;2.55;;
46429;SDS011;32131;53.454;-6.180;2023-04-01T05:38:39;5.55;;;2.05;;
46429;SDS011;32131;53.454;-6.180;2023-04-01T05:41:08;9.73;;;2.28;;
46429;SDS011;32131;53.454;-6.180;2023-04-01T05:43:37;8.52;;;2.28;;
46429;SDS011;32131;53.454;-6.180;2023-04-01T05:46:05;9.40;;;2.13;;
46429;SDS011;32131;53.454;-6.180;2023-04-01T05:48:35;11.13;;;2.50;;
46429;SDS011;32131;53.454;-6.180;2023-04-01T05:51:03;11.38;;;3.35;;
46429;SDS011;32131;53.454;-6.180;2023-04-01T05:53:32;9.55;;;2.42;;
46429;SDS011;32131;53.454;-6.180;2023-04-01T05:56:04;6.60;;;1.88;;
46429;SDS011;32131;53.454;-6.180;2023-04-01T05:58:33;8.35;;;3.10;;
46429;SDS011;32131;53.454;-6.180;2023-04-01T06:01:01;10.68;;;2.40;;
46429;SDS011;32131;53.454;-6.180;2023-04-01T06:03:39;13.50;;;3.25;;
46429;SDS011;32131;53.454;-6.180;2023-04-01T06:06:10;10.27;;;2.25;;
46429;SDS011;32131;53.454;-6.180;2023-04-01T06:08:42;7.07;;;2.47;;
46429;SDS011;32131;53.454;-6.180;2023-04-01T06:11:16;10.85;;;2.40;;
46429;SDS011;32131;53.454;-6.180;2023-04-01T06:14:03;8.95;;;2.22;;
46429;SDS011;32131;53.454;-6.180;2023-04-01T06:16:42;10.93;;;1.80;;
46429;SDS011;32131;53.454;-6.180;2023-04-01T06:19:28;3.33;;;1.45;;
46429;SDS011;32131;53.454;-6.180;2023-04-01T06:25:09;5.47;;;1.30;;
46429;SDS011;32131;53.454;-6.180;2023-04-01T06:27:56;4.57;;;1.50;;
46429;SDS011;32131;53.454;-6.180;2023-04-01T06:30:39;8.65;;;1.63;;
46429;SDS011;32131;53.454;-6.180;2023-04-01T06:36:33;14.27;;;1.52;;
46429;SDS011;32131;53.454;-6.180;2023-04-01T06:39:13;14.52;;;2.50;;
46429;SDS011;32131;53.454;-6.180;2023-04-01T06:42:04;8.30;;;2.15;;
46429;SDS011;32131;53.454;-6.180;2023-04-01T06:44:44;2.25;;;1.27;;
46429;SDS011;32131;53.454;-6.180;2023-04-01T06:47:25;4.37;;;1.73;;
46429;SDS011;32131;53.454;-6.180;2023-04-01T06:50:06;9.77;;;2.30;;
46429;SDS011;32131;53.454;-6.180;2023-04-01T06:55:24;14.27;;;2.25;;
46429;SDS011;32131;53.454;-6.180;2023-04-01T06:58:00;10.18;;;3.00;;
46429;SDS011;32131;53.454;-6.180;2023-04-01T07:00:32;8.25;;;1.50;;
46429;SDS011;32131;53.454;-6.180;2023-04-01T07:03:08;5.97;;;0.93;;
46429;SDS011;32131;53.454;-6.180;2023-04-01T07:05:44;9.00;;;1.65;;
46429;SDS011;32131;53.454;-6.180;2023-04-01T07:08:16;8.32;;;1.42;;
46429;SDS011;32131;53.454;-6.180;2023-04-01T07:10:50;13.13;;;2.08;;
46429;SDS011;32131;53.454;-6.180;2023-04-01T07:13:24;15.32;;;2.78;;
46429;SDS011;32131;53.454;-6.180;2023-04-01T07:15:58;10.40;;;1.17;;
46429;SDS011;32131;53.454;-6.180;2023-04-01T07:18:42;7.90;;;1.50;;
46429;SDS011;32131;53.454;-6.180;2023-04-01T07:21:19;11.25;;;1.65;;
46429;SDS011;32131;53.454;-6.180;2023-04-01T07:23:52;6.72;;;1.45;;
46429;SDS011;32131;53.454;-6.180;2023-04-01T07:26:24;14.55;;;2.17;;
46429;SDS011;32131;53.454;-6.180;2023-04-01T07:28:53;8.23;;;1.48;;
46429;SDS011;32131;53.454;-6.180;2023-04-01T07:31:25;8.57;;;1.48;;
46429;SDS011;32131;53.454;-6.180;2023-04-01T07:34:08;15.27;;;1.45;;
46429;SDS011;32131;53.454;-6.180;2023-04-01T07:36:45;5.38;;;1.58;;
46429;SDS011;32131;53.454;-6.180;2023-04-01T07:39:27;3.42;;;1.20;;
46429;SDS011;32131;53.454;-6.180;2023-04-01T07:42:06;5.78;;;1.23;;
46429;SDS011;32131;53.454;-6.180;2023-04-01T07:44:41;7.32;;;1.02;;
46429;SDS011;32131;53.454;-6.180;2023-04-01T07:47:21;2.92;;;1.13;;
46429;SDS011;32131;53.454;-6.180;2023-04-01T07:50:02;4.93;;;0.80;;
46429;SDS011;32131;53.454;-6.180;2023-04-01T07:52:40;4.05;;;1.27;;
46429;SDS011;32131;53.454;-6.180;2023-04-01T07:55:19;4.05;;;1.00;;
46429;SDS011;32131;53.454;-6.180;2023-04-01T07:57:53;5.53;;;1.50;;
46429;SDS011;32131;53.454;-6.180;2023-04-01T08:00:27;4.05;;;0.88;;
46429;SDS011;32131;53.454;-6.180;2023-04-01T08:03:13;2.92;;;1.05;;
46429;SDS011;32131;53.454;-6.180;2023-04-01T08:05:54;7.40;;;1.80;;
46429;SDS011;32131;53.454;-6.180;2023-04-01T08:08:27;4.85;;;1.75;;
46429;SDS011;32131;53.454;-6.180;2023-04-01T08:11:06;13.32;;;3.33;;
46429;SDS011;32131;53.454;-6.180;2023-04-01T08:13:42;5.63;;;2.03;;
46429;SDS011;32131;53.454;-6.180;2023-04-01T08:16:16;5.05;;;1.13;;
46429;SDS011;32131;53.454;-6.180;2023-04-01T08:18:53;6.70;;;1.17;;
46429;SDS011;32131;53.454;-6.180;2023-04-01T08:21:32;3.38;;;1.00;;
46429;SDS011;32131;53.454;-6.180;2023-04-01T08:24:11;9.45;;;1.63;;
46429;SDS011;32131;53.454;-6.180;2023-04-01T08:26:53;3.35;;;1.30;;
46429;SDS011;32131;53.454;-6.180;2023-04-01T08:29:25;9.30;;;1.15;;
46429;SDS011;32131;53.454;-6.180;2023-04-01T08:31:59;6.18;;;1.23;;
46429;SDS011;32131;53.454;-6.180;2023-04-01T08:34:34;7.00;;;1.05;;
46429;SDS011;32131;53.454;-6.180;2023-04-01T08:37:05;7.07;;;1.70;;
46429;SDS011;32131;53.454;-6.180;2023-04-01T08:39:39;2.33;;;0.90;;
46429;SDS011;32131;53.454;-6.180;2023-04-01T08:45:15;6.22;;;1.40;;
46429;SDS011;32131;53.454;-6.180;2023-04-01T08:47:52;4.20;;;1.17;;
46429;SDS011;32131;53.454;-6.180;2023-04-01T08:50:37;5.90;;;0.98;;
46429;SDS011;32131;53.454;-6.180;2023-04-01T08:53:17;5.47;;;2.10;;
46429;SDS011;32131;53.454;-6.180;2023-04-01T08:56:02;4.70;;;1.20;;
46429;SDS011;32131;53.454;-6.180;2023-04-01T08:58:48;4.07;;;0.88;;
46429;SDS011;32131;53.454;-6.180;2023-04-01T09:01:37;8.02;;;1.10;;
46429;SDS011;32131;53.454;-6.180;2023-04-01T09:04:23;11.40;;;1.52;;
46429;SDS011;32131;53.454;-6.180;2023-04-01T09:07:06;7.32;;;0.98;;
46429;SDS011;32131;53.454;-6.180;2023-04-01T09:09:54;4.72;;;0.90;;
46429;SDS011;32131;53.454;-6.180;2023-04-01T09:12:50;3.60;;;0.68;;
46429;SDS011;32131;53.454;-6.180;2023-04-01T09:15:37;5.18;;;1.00;;
46429;SDS011;32131;53.454;-6.180;2023-04-01T09:18:30;2.78;;;0.65;;
46429;SDS011;32131;53.454;-6.180;2023-04-01T09:21:24;8.25;;;1.52;;
46429;SDS011;32131;53.454;-6.180;2023-04-01T09:24:18;8.27;;;0.85;;
46429;SDS011;32131;53.454;-6.180;2023-04-01T09:26:59;4.65;;;1.13;;
46429;SDS011;32131;53.454;-6.180;2023-04-01T09:29:41;6.55;;;1.15;;
46429;SDS011;32131;53.454;-6.180;2023-04-01T09:35:47;7.32;;;0.88;;
46429;SDS011;32131;53.454;-6.180;2023-04-01T09:38:22;3.88;;;0.95;;
46429;SDS011;32131;53.454;-6.180;2023-04-01T09:40:56;6.63;;;0.93;;
46429;SDS011;32131;53.454;-6.180;2023-04-01T09:43:33;7.38;;;1.27;;
46429;SDS011;32131;53.454;-6.180;2023-04-01T09:46:20;2.55;;;0.77;;
46429;SDS011;32131;53.454;-6.180;2023-04-01T09:49:17;8.60;;;1.33;;
46429;SDS011;32131;53.454;-6.180;2023-04-01T09:52:02;3.33;;;0.70;;
46429;SDS011;32131;53.454;-6.180;2023-04-01T09:54:48;4.25;;;0.60;;
46429;SDS011;32131;53.454;-6.180;2023-04-01T09:57:33;7.50;;;1.20;;
46429;SDS011;32131;53.454;-6.180;2023-04-01T10:00:26;1.42;;;0.45;;
46429;SDS011;32131;53.454;-6.180;2023-04-01T10:13:07;7.43;;;0.77;;
46429;SDS011;32131;53.454;-6.180;2023-04-01T10:16:08;4.25;;;0.80;;
46429;SDS011;32131;53.454;-6.180;2023-04-01T10:19:03;1.73;;;0.52;;
46429;SDS011;32131;53.454;-6.180;2023-04-01T10:21:59;2.00;;;0.38;;
46429;SDS011;32131;53.454;-6.180;2023-04-01T10:25:01;2.47;;;0.45;;
46429;SDS011;32131;53.454;-6.180;2023-04-01T10:31:06;6.03;;;0.40;;
46429;SDS011;32131;53.454;-6.180;2023-04-01T10:42:47;4.13;;;0.50;;
46429;SDS011;32131;53.454;-6.180;2023-04-01T10:45:46;1.67;;;0.40;;
46429;SDS011;32131;53.454;-6.180;2023-04-01T10:48:44;0.90;;;0.50;;
46429;SDS011;32131;53.454;-6.180;2023-04-01T10:55:11;1.38;;;0.57;;
46429;SDS011;32131;53.454;-6.180;2023-04-01T11:01:15;2.65;;;0.40;;
46429;SDS011;32131;53.454;-6.180;2023-04-01T11:17:09;2.58;;;0.85;;
46429;SDS011;32131;53.454;-6.180;2023-04-01T11:20:18;6.95;;;1.05;;
46429;SDS011;32131;53.454;-6.180;2023-04-01T11:23:28;5.35;;;0.70;;
46429;SDS011;32131;53.454;-6.180;2023-04-01T11:32:37;1.65;;;0.52;;
46429;SDS011;32131;53.454;-6.180;2023-04-01T11:38:48;5.05;;;0.90;;
46429;SDS011;32131;53.454;-6.180;2023-04-01T11:41:26;2.15;;;0.60;;
46429;SDS011;32131;53.454;-6.180;2023-04-01T11:44:14;2.47;;;0.50;;
46429;SDS011;32131;53.454;-6.180;2023-04-01T11:46:59;3.78;;;0.50;;
46429;SDS011;32131;53.454;-6.180;2023-04-01T11:49:42;3.33;;;0.70;;
46429;SDS011;32131;53.454;-6.180;2023-04-01T11:52:28;4.93;;;0.50;;
46429;SDS011;32131;53.454;-6.180;2023-04-01T11:58:22;1.85;;;0.60;;
46429;SDS011;32131;53.454;-6.180;2023-04-01T12:01:14;0.88;;;0.30;;
46429;SDS011;32131;53.454;-6.180;2023-04-01T12:04:00;4.22;;;0.57;;
46429;SDS011;32131;53.454;-6.180;2023-04-01T12:06:58;5.30;;;0.40;;
46429;SDS011;32131;53.454;-6.180;2023-04-01T12:09:43;5.45;;;0.65;;
46429;SDS011;32131;53.454;-6.180;2023-04-01T12:12:20;3.83;;;0.40;;
46429;SDS011;32131;53.454;-6.180;2023-04-01T12:15:00;5.55;;;0.50;;
46429;SDS011;32131;53.454;-6.180;2023-04-01T12:17:42;2.88;;;0.50;;
